createdAt,value
2023-05-08T00:00:23.741Z,3.73
2023-05-08T00:02:52.363Z,3.77
2023-05-08T00:05:20.934Z,3.23
2023-05-08T00:07:51.357Z,3.30
2023-05-08T00:10:19.843Z,3.50
2023-05-08T00:12:49.636Z,3.50
2023-05-08T00:15:18.180Z,4.00
2023-05-08T00:17:46.661Z,3.53
2023-05-08T00:20:15.409Z,3.67
2023-05-08T00:22:44.002Z,3.67
2023-05-08T00:25:12.361Z,3.30
2023-05-08T00:27:40.718Z,3.73
2023-05-08T00:30:11.460Z,3.20
2023-05-08T00:32:40.170Z,4.00
2023-05-08T00:35:08.783Z,3.60
2023-05-08T00:37:37.740Z,3.53
2023-05-08T00:40:06.422Z,3.37
2023-05-08T00:42:34.694Z,3.17
2023-05-08T00:45:03.275Z,3.30
2023-05-08T00:47:33.601Z,3.33
2023-05-08T00:50:02.686Z,3.47
2023-05-08T00:52:32.714Z,3.60
2023-05-08T00:55:01.760Z,3.07
2023-05-08T00:57:31.675Z,3.20
2023-05-08T01:00:00.570Z,3.70
2023-05-08T01:02:31.462Z,3.40
2023-05-08T01:05:01.862Z,3.23
2023-05-08T01:07:30.425Z,3.40
2023-05-08T01:09:58.790Z,2.93
2023-05-08T01:12:31.880Z,3.23
2023-05-08T01:15:06.523Z,3.93
2023-05-08T01:17:40.058Z,3.60
2023-05-08T01:20:17.834Z,3.10
2023-05-08T01:22:55.090Z,3.70
2023-05-08T01:25:47.639Z,3.90
2023-05-08T01:28:24.206Z,3.83
2023-05-08T01:31:04.929Z,3.70
2023-05-08T01:33:37.138Z,4.17
2023-05-08T01:36:12.587Z,3.90
2023-05-08T01:38:44.755Z,4.43
2023-05-08T01:41:16.337Z,4.13
2023-05-08T01:43:48.561Z,4.27
2023-05-08T01:46:20.296Z,4.10
2023-05-08T01:48:51.992Z,4.80
2023-05-08T01:51:22.786Z,4.23
2023-05-08T01:53:52.967Z,4.80
2023-05-08T01:56:23.694Z,5.27
2023-05-08T01:58:53.103Z,5.60
2023-05-08T02:01:24.343Z,5.23
2023-05-08T02:03:55.459Z,5.80
2023-05-08T02:06:24.575Z,5.90
2023-05-08T02:08:53.411Z,5.80
2023-05-08T02:11:22.159Z,5.27
2023-05-08T02:13:50.937Z,5.80
2023-05-08T02:16:20.050Z,4.93
2023-05-08T02:18:50.250Z,4.93
2023-05-08T02:21:20.734Z,5.03
2023-05-08T02:23:49.825Z,5.20
2023-05-08T02:26:18.357Z,4.97
2023-05-08T02:28:47.697Z,5.60
2023-05-08T02:31:16.393Z,5.20
2023-05-08T02:33:45.253Z,5.90
2023-05-08T02:36:15.766Z,7.10
2023-05-08T02:38:46.364Z,7.53
2023-05-08T02:41:15.559Z,7.20
2023-05-08T02:43:44.071Z,7.10
2023-05-08T02:46:15.255Z,8.30
2023-05-08T02:48:48.000Z,8.57
2023-05-08T02:51:21.297Z,8.23
2023-05-08T02:53:54.687Z,9.00
2023-05-08T02:56:28.694Z,9.67
2023-05-08T02:59:00.364Z,9.93
2023-05-08T03:01:30.501Z,10.07
2023-05-08T03:04:11.135Z,10.13
2023-05-08T03:06:41.155Z,11.67
2023-05-08T03:09:13.576Z,10.50
2023-05-08T03:11:43.114Z,10.83
2023-05-08T03:14:12.898Z,11.83
2023-05-08T03:16:43.373Z,12.73
2023-05-08T03:19:16.924Z,11.57
2023-05-08T03:21:46.057Z,13.40
2023-05-08T03:24:17.399Z,12.87
2023-05-08T03:26:46.293Z,12.20
2023-05-08T03:29:15.437Z,12.23
2023-05-08T03:31:44.394Z,11.90
2023-05-08T03:34:14.097Z,12.33
2023-05-08T03:36:42.636Z,11.57
2023-05-08T03:39:11.371Z,11.07
2023-05-08T03:41:41.340Z,11.03
2023-05-08T03:44:10.023Z,11.17
2023-05-08T03:46:40.029Z,12.47
2023-05-08T03:49:10.739Z,12.13
2023-05-08T03:51:40.789Z,11.80
2023-05-08T03:54:09.218Z,11.83
2023-05-08T03:56:37.679Z,11.03
2023-05-08T03:59:12.027Z,10.63
2023-05-08T04:01:41.697Z,12.33
2023-05-08T04:04:12.355Z,10.80
2023-05-08T04:06:49.957Z,11.90
2023-05-08T04:09:20.361Z,11.70
2023-05-08T04:11:54.458Z,11.57
2023-05-08T04:14:26.363Z,12.40
2023-05-08T04:16:56.961Z,12.30
2023-05-08T04:19:26.140Z,11.13
2023-05-08T04:21:56.553Z,11.43
2023-05-08T04:24:26.625Z,11.73
2023-05-08T04:26:55.302Z,10.70
2023-05-08T04:29:25.407Z,10.80
2023-05-08T04:31:53.828Z,11.30
2023-05-08T04:34:22.461Z,10.30
2023-05-08T04:36:51.042Z,10.43
2023-05-08T04:39:20.088Z,9.87
2023-05-08T04:41:51.281Z,10.87
2023-05-08T04:44:19.851Z,10.57
2023-05-08T04:46:50.244Z,10.60
2023-05-08T04:49:18.611Z,11.10
2023-05-08T04:51:46.928Z,10.43
2023-05-08T04:54:15.502Z,10.43
2023-05-08T04:56:44.500Z,11.30
2023-05-08T04:59:14.788Z,10.10
2023-05-08T05:01:44.429Z,10.90
2023-05-08T05:04:14.194Z,9.93
2023-05-08T05:06:42.706Z,9.07
2023-05-08T05:09:11.805Z,9.77
2023-05-08T05:11:40.174Z,9.90
2023-05-08T05:14:08.674Z,9.67
2023-05-08T05:16:37.154Z,10.00
2023-05-08T05:19:05.763Z,9.07
2023-05-08T05:21:37.713Z,9.30
2023-05-08T05:24:06.463Z,9.73
2023-05-08T05:26:36.756Z,11.77
2023-05-08T05:29:05.332Z,11.00
2023-05-08T05:31:33.814Z,11.80
2023-05-08T05:34:02.188Z,10.70
2023-05-08T05:36:30.790Z,10.10
2023-05-08T05:39:00.680Z,9.40
2023-05-08T05:41:29.193Z,9.53
2023-05-08T05:43:57.897Z,10.53
2023-05-08T05:46:31.142Z,9.40
2023-05-08T05:48:59.566Z,9.73
2023-05-08T05:51:28.571Z,9.00
2023-05-08T05:53:57.245Z,8.67
2023-05-08T05:56:27.054Z,8.83
2023-05-08T05:58:55.642Z,8.80
2023-05-08T06:01:24.841Z,9.57
2023-05-08T06:03:53.315Z,9.80
2023-05-08T06:06:22.069Z,9.00
2023-05-08T06:08:50.533Z,10.20
2023-05-08T06:11:19.442Z,10.00
2023-05-08T06:13:50.486Z,8.83
2023-05-08T06:16:20.807Z,8.70
2023-05-08T06:18:49.332Z,8.33
2023-05-08T06:21:17.929Z,8.80
2023-05-08T06:23:46.346Z,9.07
2023-05-08T06:26:14.764Z,9.60
2023-05-08T06:28:43.149Z,8.63
2023-05-08T06:31:13.061Z,9.67
2023-05-08T06:33:41.547Z,7.77
2023-05-08T06:36:10.436Z,8.50
2023-05-08T06:38:38.830Z,8.70
2023-05-08T06:41:07.243Z,8.10
2023-05-08T06:43:35.633Z,9.00
2023-05-08T06:46:04.791Z,9.60
2023-05-08T06:48:35.241Z,9.10
2023-05-08T06:51:03.680Z,9.20
2023-05-08T06:53:32.110Z,8.50
2023-05-08T06:56:00.358Z,9.33
2023-05-08T06:58:28.758Z,9.00
2023-05-08T07:00:57.241Z,9.17
2023-05-08T07:03:25.694Z,7.77
2023-05-08T07:05:55.550Z,8.90
2023-05-08T07:08:23.882Z,9.13
2023-05-08T07:10:52.516Z,8.57
2023-05-08T07:13:22.914Z,8.57
2023-05-08T07:15:51.545Z,9.83
2023-05-08T07:18:19.885Z,9.67
2023-05-08T07:20:48.223Z,8.37
2023-05-08T07:23:18.022Z,8.83
2023-05-08T07:25:46.420Z,8.70
2023-05-08T07:28:15.392Z,9.90
2023-05-08T07:30:43.889Z,10.00
2023-05-08T07:33:12.558Z,8.67
2023-05-08T07:35:41.054Z,7.80
2023-05-08T07:38:09.607Z,8.50
2023-05-08T07:40:39.338Z,8.20
2023-05-08T07:43:07.746Z,9.13
2023-05-08T07:45:37.306Z,9.73
2023-05-08T07:48:05.939Z,8.40
2023-05-08T07:50:34.440Z,9.30
2023-05-08T07:53:02.953Z,9.57
2023-05-08T07:55:31.407Z,9.37
2023-05-08T07:58:01.124Z,10.10
2023-05-08T08:00:29.919Z,10.37
2023-05-08T08:02:58.621Z,9.83
2023-05-08T08:05:27.329Z,10.07
2023-05-08T08:07:55.688Z,9.60
2023-05-08T08:10:24.088Z,10.17
2023-05-08T08:12:52.619Z,9.73
2023-05-08T08:15:22.662Z,10.27
2023-05-08T08:17:51.138Z,10.33
2023-05-08T08:20:19.478Z,10.07
2023-05-08T08:22:47.980Z,10.13
2023-05-08T08:25:16.459Z,10.17
2023-05-08T08:27:44.785Z,10.17
2023-05-08T08:30:18.270Z,10.83
2023-05-08T08:32:48.560Z,11.47
2023-05-08T08:35:17.391Z,10.10
2023-05-08T08:37:45.945Z,9.70
2023-05-08T08:40:14.844Z,11.53
2023-05-08T08:42:43.201Z,11.30
2023-05-08T08:45:12.619Z,10.43
2023-05-08T08:47:42.517Z,11.57
2023-05-08T08:50:14.699Z,10.60
2023-05-08T08:52:48.876Z,10.37
2023-05-08T08:55:18.045Z,11.40
2023-05-08T08:57:50.980Z,11.73
2023-05-08T09:00:20.027Z,10.23
2023-05-08T09:02:48.888Z,11.20
2023-05-08T09:05:19.795Z,10.60
2023-05-08T09:07:48.789Z,10.50
2023-05-08T09:10:17.377Z,10.40
2023-05-08T09:12:45.818Z,10.50
2023-05-08T09:15:14.581Z,11.77
2023-05-08T09:17:43.269Z,10.40
2023-05-08T09:20:13.056Z,10.87
2023-05-08T09:22:43.172Z,10.60
2023-05-08T09:25:12.293Z,11.10
2023-05-08T09:27:40.894Z,11.20
2023-05-08T09:30:10.752Z,10.00
2023-05-08T09:32:41.000Z,11.13
2023-05-08T09:35:10.379Z,10.73
2023-05-08T09:37:40.234Z,11.87
2023-05-08T09:40:17.577Z,10.47
2023-05-08T09:42:46.374Z,12.00
2023-05-08T09:45:27.358Z,11.03
2023-05-08T09:47:56.055Z,11.20
2023-05-08T09:50:25.389Z,11.00
2023-05-08T09:52:53.957Z,11.23
2023-05-08T09:55:23.774Z,11.50
2023-05-08T09:57:56.715Z,11.83
2023-05-08T10:00:25.735Z,12.83
2023-05-08T10:02:58.454Z,12.60
2023-05-08T10:05:27.777Z,11.93
2023-05-08T10:07:56.426Z,11.70
2023-05-08T10:10:27.777Z,11.60
2023-05-08T10:12:57.241Z,11.17
2023-05-08T10:15:27.392Z,11.47
2023-05-08T10:17:57.022Z,11.53
2023-05-08T10:20:26.818Z,11.30
2023-05-08T10:22:55.589Z,11.97
2023-05-08T10:25:24.352Z,11.27
2023-05-08T10:27:58.140Z,11.43
2023-05-08T10:30:27.236Z,12.23
2023-05-08T10:32:56.254Z,11.83
2023-05-08T10:35:24.786Z,12.60
2023-05-08T10:37:53.941Z,10.87
2023-05-08T10:40:22.439Z,12.30
2023-05-08T10:42:51.077Z,13.00
2023-05-08T10:45:20.900Z,11.97
2023-05-08T10:47:59.612Z,11.07
2023-05-08T10:50:36.750Z,12.23
2023-05-08T10:53:07.672Z,13.00
2023-05-08T10:55:38.625Z,12.23
2023-05-08T10:58:08.133Z,12.90
2023-05-08T11:01:09.878Z,13.10
2023-05-08T11:03:41.067Z,12.90
2023-05-08T11:06:09.837Z,13.33
2023-05-08T11:08:45.569Z,13.00
2023-05-08T11:11:17.960Z,13.53
2023-05-08T11:13:48.849Z,12.70
2023-05-08T11:16:18.714Z,14.17
2023-05-08T11:19:17.794Z,13.60
2023-05-08T11:22:00.975Z,14.10
2023-05-08T11:24:36.984Z,13.40
2023-05-08T11:27:05.553Z,13.17
2023-05-08T11:29:34.204Z,12.70
2023-05-08T11:32:04.106Z,13.40
2023-05-08T11:34:50.610Z,14.10
2023-05-08T11:37:19.847Z,14.07
2023-05-08T11:39:48.355Z,14.87
2023-05-08T11:42:36.262Z,14.10
2023-05-08T11:45:06.138Z,13.40
2023-05-08T11:47:39.195Z,13.43
2023-05-08T11:50:08.297Z,15.30
2023-05-08T11:52:37.218Z,14.33
2023-05-08T11:55:06.361Z,13.93
2023-05-08T11:57:34.797Z,15.03
2023-05-08T12:00:06.027Z,14.03
2023-05-08T12:02:40.162Z,14.30
2023-05-08T12:05:09.320Z,14.70
2023-05-08T12:07:46.325Z,13.63
2023-05-08T12:10:15.889Z,14.37
2023-05-08T12:12:45.839Z,15.30
2023-05-08T12:15:15.151Z,15.20
2023-05-08T12:17:45.193Z,14.77
2023-05-08T12:20:14.873Z,15.33
2023-05-08T12:22:43.924Z,14.60
2023-05-08T12:25:13.168Z,14.97
2023-05-08T12:27:41.780Z,15.63
2023-05-08T12:30:11.026Z,15.23
2023-05-08T12:32:40.426Z,14.13
2023-05-08T12:35:11.254Z,16.20
2023-05-08T12:37:39.914Z,15.87
2023-05-08T12:40:09.291Z,14.73
2023-05-08T12:42:43.775Z,16.23
2023-05-08T12:45:18.448Z,19.00
2023-05-08T12:47:50.471Z,16.80
2023-05-08T12:50:22.309Z,16.33
2023-05-08T12:52:51.959Z,15.60
2023-05-08T12:55:24.417Z,14.13
2023-05-08T12:57:53.379Z,15.10
2023-05-08T13:00:21.761Z,13.13
2023-05-08T13:02:54.417Z,14.00
2023-05-08T13:05:24.818Z,14.33
2023-05-08T13:07:53.177Z,15.53
2023-05-08T13:10:23.964Z,14.13
2023-05-08T13:12:53.316Z,14.20
2023-05-08T13:15:22.948Z,13.30
2023-05-08T13:17:51.542Z,13.93
2023-05-08T13:20:19.876Z,12.67
2023-05-08T13:22:49.576Z,14.00
2023-05-08T13:25:17.939Z,12.40
2023-05-08T13:27:46.344Z,12.20
2023-05-08T13:30:15.974Z,12.00
2023-05-08T13:32:44.580Z,11.90
2023-05-08T13:35:12.988Z,12.53
2023-05-08T13:37:41.206Z,12.30
2023-05-08T13:40:11.555Z,12.80
2023-05-08T13:42:39.996Z,13.10
2023-05-08T13:45:10.779Z,13.10
2023-05-08T13:47:39.339Z,15.13
2023-05-08T13:50:08.371Z,14.97
2023-05-08T13:52:36.923Z,14.17
2023-05-08T13:55:05.979Z,14.30
2023-05-08T13:57:35.718Z,14.63
2023-05-08T14:00:04.710Z,16.30
2023-05-08T14:02:33.406Z,18.47
2023-05-08T14:05:01.938Z,18.27
2023-05-08T14:07:30.361Z,18.30
2023-05-08T14:09:58.674Z,19.80
2023-05-08T14:12:27.172Z,17.73
2023-05-08T14:14:56.932Z,17.20
2023-05-08T14:17:25.449Z,18.03
2023-05-08T14:19:54.042Z,20.00
2023-05-08T14:22:22.434Z,18.23
2023-05-08T14:24:51.007Z,19.10
2023-05-08T14:27:19.490Z,19.07
2023-05-08T14:29:47.865Z,18.83
2023-05-08T14:32:17.732Z,18.57
2023-05-08T14:34:46.162Z,19.40
2023-05-08T14:37:14.435Z,18.50
2023-05-08T14:39:45.536Z,18.73
2023-05-08T14:42:22.952Z,19.53
2023-05-08T14:44:51.684Z,20.03
2023-05-08T14:47:21.527Z,22.37
2023-05-08T14:49:49.853Z,19.83
2023-05-08T14:52:18.196Z,20.10
2023-05-08T14:54:47.897Z,20.83
2023-05-08T14:57:16.619Z,21.20
2023-05-08T14:59:54.183Z,22.17
2023-05-08T15:02:25.028Z,18.50
2023-05-08T15:04:53.375Z,18.67
2023-05-08T15:07:21.773Z,16.93
2023-05-08T15:09:50.290Z,15.20
2023-05-08T15:12:18.679Z,13.90
2023-05-08T15:14:47.109Z,12.43
2023-05-08T15:17:15.577Z,12.80
2023-05-08T15:19:45.879Z,12.90
2023-05-08T15:22:14.290Z,12.67
2023-05-08T15:24:42.951Z,12.43
2023-05-08T15:27:12.144Z,11.93
2023-05-08T15:29:40.748Z,12.40
2023-05-08T15:32:09.298Z,11.77
2023-05-08T15:34:39.991Z,12.93
2023-05-08T15:37:10.429Z,12.90
2023-05-08T15:39:38.921Z,12.90
2023-05-08T15:42:07.702Z,12.07
2023-05-08T15:44:53.266Z,12.00
2023-05-08T15:47:23.964Z,12.80
2023-05-08T15:49:52.565Z,12.53
2023-05-08T15:52:22.795Z,14.27
2023-05-08T15:54:51.314Z,13.63
2023-05-08T15:57:19.734Z,14.87
2023-05-08T15:59:48.123Z,14.47
2023-05-08T16:02:16.505Z,13.77
2023-05-08T16:04:44.878Z,14.70
2023-05-08T16:07:13.269Z,14.37
2023-05-08T16:09:43.278Z,15.33
2023-05-08T16:12:11.759Z,13.93
2023-05-08T16:14:40.324Z,14.80
2023-05-08T16:17:09.319Z,14.67
2023-05-08T16:19:41.141Z,12.90
2023-05-08T16:22:09.473Z,14.67
2023-05-08T16:24:37.853Z,13.83
2023-05-08T16:27:07.567Z,13.90
2023-05-08T16:29:35.935Z,14.77
2023-05-08T16:32:04.412Z,13.13
2023-05-08T16:34:35.205Z,13.87
2023-05-08T16:37:03.519Z,12.70
2023-05-08T16:39:31.870Z,12.67
2023-05-08T16:42:00.181Z,13.87
2023-05-08T16:44:29.989Z,13.30
2023-05-08T16:46:58.325Z,13.23
2023-05-08T16:49:27.126Z,13.57
2023-05-08T16:51:55.547Z,14.47
2023-05-08T16:54:24.036Z,13.63
2023-05-08T16:56:52.417Z,13.43
2023-05-08T16:59:20.836Z,13.20
2023-05-08T17:01:50.751Z,12.63
2023-05-08T17:04:19.129Z,12.83
2023-05-08T17:06:47.511Z,12.63
2023-05-08T17:09:17.787Z,12.40
2023-05-08T17:11:46.052Z,12.70
2023-05-08T17:14:14.391Z,12.03
2023-05-08T17:16:42.791Z,11.33
2023-05-08T17:19:12.452Z,11.30
2023-05-08T17:21:40.736Z,11.40
2023-05-08T17:24:09.439Z,11.60
2023-05-08T17:26:37.670Z,12.00
2023-05-08T17:29:06.138Z,10.60
2023-05-08T17:31:34.648Z,11.80
2023-05-08T17:34:03.086Z,10.20
2023-05-08T17:36:32.963Z,10.53
2023-05-08T17:39:01.355Z,12.10
2023-05-08T17:41:29.874Z,10.47
2023-05-08T17:43:58.365Z,11.10
2023-05-08T17:46:26.793Z,11.80
2023-05-08T17:48:55.131Z,11.20
2023-05-08T17:51:23.677Z,11.00
2023-05-08T17:53:54.074Z,10.33
2023-05-08T17:56:23.274Z,11.60
2023-05-08T17:58:52.577Z,10.40
2023-05-08T18:01:20.895Z,10.60
2023-05-08T18:03:49.357Z,10.40
2023-05-08T18:06:17.710Z,11.30
2023-05-08T18:08:46.638Z,11.50
2023-05-08T18:11:22.340Z,10.97
2023-05-08T18:13:51.444Z,11.30
2023-05-08T18:16:21.033Z,11.93
2023-05-08T18:18:49.875Z,11.23
2023-05-08T18:21:18.213Z,12.40
2023-05-08T18:23:46.494Z,11.43
2023-05-08T18:26:15.506Z,10.90
2023-05-08T18:28:45.601Z,12.33
2023-05-08T18:31:16.138Z,10.67
2023-05-08T18:33:44.382Z,11.57
2023-05-08T18:36:12.685Z,10.43
2023-05-08T18:38:41.939Z,10.30
2023-05-08T18:41:10.322Z,9.90
2023-05-08T18:43:38.576Z,9.80
2023-05-08T18:46:13.254Z,10.30
2023-05-08T18:48:41.813Z,11.33
2023-05-08T18:51:10.202Z,11.47
2023-05-08T18:53:39.351Z,9.37
2023-05-08T18:56:07.870Z,10.70
2023-05-08T18:58:36.242Z,9.63
2023-05-08T19:01:06.474Z,10.77
2023-05-08T19:03:38.963Z,9.37
2023-05-08T19:06:07.415Z,9.50
2023-05-08T19:08:35.903Z,8.87
2023-05-08T19:11:04.248Z,10.57
2023-05-08T19:13:32.627Z,9.30
2023-05-08T19:16:01.586Z,9.30
2023-05-08T19:18:30.700Z,9.47
2023-05-08T19:21:00.531Z,11.10
2023-05-08T19:23:28.994Z,9.27
2023-05-08T19:25:57.445Z,11.90
2023-05-08T19:28:25.983Z,9.97
2023-05-08T19:30:54.248Z,9.53
2023-05-08T19:33:22.718Z,12.00
2023-05-08T19:35:50.936Z,10.33
2023-05-08T19:38:20.686Z,10.30
2023-05-08T19:40:57.009Z,9.90
2023-05-08T19:43:26.249Z,9.50
2023-05-08T19:45:55.005Z,10.30
2023-05-08T19:48:23.480Z,11.90
2023-05-08T19:50:56.169Z,12.27
2023-05-08T19:53:26.130Z,13.27
2023-05-08T19:55:54.466Z,11.33
2023-05-08T19:58:22.873Z,11.60
2023-05-08T20:00:51.932Z,13.13
2023-05-08T20:03:20.831Z,12.77
2023-05-08T20:05:49.426Z,12.87
2023-05-08T20:08:17.778Z,12.97
2023-05-08T20:10:49.200Z,12.17
2023-05-08T20:13:17.806Z,11.90
2023-05-08T20:15:46.325Z,12.00
2023-05-08T20:18:14.659Z,13.43
2023-05-08T20:20:45.170Z,14.37
2023-05-08T20:23:13.574Z,13.20
2023-05-08T20:25:45.986Z,14.37
2023-05-08T20:28:15.882Z,12.30
2023-05-08T20:30:44.593Z,12.77
2023-05-08T20:33:12.936Z,12.37
2023-05-08T20:35:41.325Z,12.40
2023-05-08T20:38:09.730Z,13.27
2023-05-08T20:40:38.626Z,13.03
2023-05-08T20:43:07.053Z,12.50
2023-05-08T20:45:37.036Z,12.00
2023-05-08T20:48:05.783Z,12.97
2023-05-08T20:50:34.292Z,12.20
2023-05-08T20:53:02.644Z,11.90
2023-05-08T20:55:30.999Z,13.33
2023-05-08T20:57:59.855Z,14.10
2023-05-08T21:00:28.268Z,13.70
2023-05-08T21:02:58.145Z,15.77
2023-05-08T21:05:26.502Z,16.30
2023-05-08T21:07:58.433Z,13.43
2023-05-08T21:10:28.722Z,13.90
2023-05-08T21:12:57.143Z,12.50
2023-05-08T21:15:25.571Z,11.80
2023-05-08T21:17:54.376Z,13.10
2023-05-08T21:20:24.153Z,12.80
2023-05-08T21:22:52.487Z,13.20
2023-05-08T21:25:21.821Z,10.90
2023-05-08T21:27:50.205Z,10.83
2023-05-08T21:30:18.551Z,11.50
2023-05-08T21:32:47.345Z,11.37
2023-05-08T21:35:16.039Z,11.27
2023-05-08T21:37:46.231Z,10.50
2023-05-08T21:40:14.715Z,12.20
2023-05-08T21:42:43.363Z,11.00
2023-05-08T21:45:12.415Z,11.50
2023-05-08T21:47:41.194Z,12.40
2023-05-08T21:50:10.382Z,11.57
2023-05-08T21:52:38.759Z,10.77
2023-05-08T21:55:09.456Z,12.23
2023-05-08T21:57:38.394Z,11.40
2023-05-08T22:00:07.277Z,11.00
2023-05-08T22:02:35.769Z,11.10
2023-05-08T22:05:05.174Z,10.67
2023-05-08T22:07:33.542Z,11.80
2023-05-08T22:10:02.160Z,10.67
2023-05-08T22:12:31.993Z,11.80
2023-05-08T22:15:00.370Z,11.43
2023-05-08T22:17:28.843Z,11.50
2023-05-08T22:19:57.378Z,11.60
2023-05-08T22:22:25.769Z,12.27
2023-05-08T22:24:54.135Z,10.80
2023-05-08T22:27:22.760Z,12.63
2023-05-08T22:29:52.528Z,12.60
2023-05-08T22:32:20.962Z,13.40
2023-05-08T22:34:50.324Z,13.53
2023-05-08T22:37:18.999Z,13.90
2023-05-08T22:39:47.430Z,13.00
2023-05-08T22:42:16.166Z,13.70
2023-05-08T22:44:44.727Z,12.20
2023-05-08T22:47:15.082Z,12.77
2023-05-08T22:49:44.251Z,12.87
2023-05-08T22:52:12.674Z,12.20
2023-05-08T22:54:41.044Z,12.57
2023-05-08T22:57:09.378Z,12.33
2023-05-08T22:59:38.304Z,12.60
2023-05-08T23:02:06.776Z,12.67
2023-05-08T23:04:36.575Z,12.70
2023-05-08T23:07:05.297Z,13.00
2023-05-08T23:09:33.646Z,12.53
2023-05-08T23:12:02.035Z,11.53
2023-05-08T23:14:30.374Z,11.60
2023-05-08T23:16:58.807Z,11.40
2023-05-08T23:19:27.338Z,11.60
2023-05-08T23:21:56.978Z,11.93
2023-05-08T23:24:25.408Z,12.33
2023-05-08T23:26:53.830Z,12.60
2023-05-08T23:29:22.268Z,11.50
2023-05-08T23:31:50.755Z,11.37
2023-05-08T23:34:19.176Z,10.97
2023-05-08T23:36:47.613Z,11.87
2023-05-08T23:39:17.423Z,12.20
2023-05-08T23:41:45.851Z,10.90
2023-05-08T23:44:14.178Z,11.80
2023-05-08T23:46:42.841Z,10.53
2023-05-08T23:49:11.549Z,11.27
2023-05-08T23:51:52.196Z,11.33
2023-05-08T23:54:22.086Z,11.07
2023-05-08T23:56:50.554Z,10.90
2023-05-08T23:59:18.929Z,11.73
